Weather at Brasschaat Airfield

Public forecast

Using degrees Celsius for public forecast. Weather courtesy of forecast.io.

Closest aviation weather report (METAR) to Brasschaat Airfield

Closest report is Woensdrecht Air Base, 8.8 nm (16.3 km) NW.

2024/04/22 23:55 (retrieved 29 minutes ago)

EHWO 222355Z AUTO VRB02KT 9999 OVC210 M01/M03 Q1024 BLU

Closest aviation forecast (TAF) to Brasschaat Airfield

Forecast is more than 6 hours old.

Closest forecast is Woensdrecht Air Base, 8.8 nm (16.3 km) NW.

2024/04/22 13:03 (retrieved 11 hours ago)

TAF EHWO 221216Z 2213/2301 01005KT 9999 FEW030 SCT045 PROB30 TEMPO 2213/2217 03010G20KT SCT030CB